sensor_id;sensor_type;location;lat;lon;timestamp;pressure;altitude;pressure_sealevel;temperature;humidity
64078;BME280;51039;49.696;10.808;2022-12-16T00:00:01;97190.66;;;-3.37;85.77
64078;BME280;51039;49.696;10.808;2022-12-16T00:02:35;97192.81;;;-3.32;85.70
64078;BME280;51039;49.696;10.808;2022-12-16T00:05:00;97192.00;;;-3.32;85.54
64078;BME280;51039;49.696;10.808;2022-12-16T00:07:26;97190.50;;;-3.35;84.88
64078;BME280;51039;49.696;10.808;2022-12-16T00:09:52;97181.78;;;-3.34;85.14
64078;BME280;51039;49.696;10.808;2022-12-16T00:12:17;97184.50;;;-3.36;85.30
64078;BME280;51039;49.696;10.808;2022-12-16T00:14:42;97186.16;;;-3.34;85.20
64078;BME280;51039;49.696;10.808;2022-12-16T00:17:08;97185.91;;;-3.41;85.01
64078;BME280;51039;49.696;10.808;2022-12-16T00:19:33;97174.59;;;-3.40;85.24
64078;BME280;51039;49.696;10.808;2022-12-16T00:21:59;97180.16;;;-3.35;84.91
64078;BME280;51039;49.696;10.808;2022-12-16T00:24:24;97176.47;;;-3.32;85.00
64078;BME280;51039;49.696;10.808;2022-12-16T00:26:49;97175.34;;;-3.30;85.15
64078;BME280;51039;49.696;10.808;2022-12-16T00:29:15;97174.91;;;-3.25;84.91
64078;BME280;51039;49.696;10.808;2022-12-16T00:31:41;97172.31;;;-3.25;84.82
64078;BME280;51039;49.696;10.808;2022-12-16T00:34:06;97174.78;;;-3.24;84.28
64078;BME280;51039;49.696;10.808;2022-12-16T00:36:32;97171.50;;;-3.26;84.74
64078;BME280;51039;49.696;10.808;2022-12-16T00:38:57;97176.03;;;-3.28;84.46
64078;BME280;51039;49.696;10.808;2022-12-16T00:41:22;97174.81;;;-3.33;84.53
64078;BME280;51039;49.696;10.808;2022-12-16T00:43:48;97179.19;;;-3.34;84.88
64078;BME280;51039;49.696;10.808;2022-12-16T00:46:13;97172.31;;;-3.25;85.13
64078;BME280;51039;49.696;10.808;2022-12-16T00:48:38;97175.16;;;-3.19;84.64
64078;BME280;51039;49.696;10.808;2022-12-16T00:51:04;97176.09;;;-3.20;84.80
64078;BME280;51039;49.696;10.808;2022-12-16T00:53:29;97171.25;;;-3.23;85.17
64078;BME280;51039;49.696;10.808;2022-12-16T00:56:04;97176.94;;;-3.19;85.30
64078;BME280;51039;49.696;10.808;2022-12-16T00:58:32;97177.75;;;-3.19;85.51
64078;BME280;51039;49.696;10.808;2022-12-16T01:00:57;97171.25;;;-3.23;85.10
64078;BME280;51039;49.696;10.808;2022-12-16T01:03:22;97184.19;;;-3.23;85.62
64078;BME280;51039;49.696;10.808;2022-12-16T01:05:48;97185.13;;;-3.24;85.20
64078;BME280;51039;49.696;10.808;2022-12-16T01:08:13;97185.13;;;-3.24;85.58
64078;BME280;51039;49.696;10.808;2022-12-16T01:10:39;97186.47;;;-3.20;86.02
64078;BME280;51039;49.696;10.808;2022-12-16T01:13:04;97189.59;;;-3.16;85.99
64078;BME280;51039;49.696;10.808;2022-12-16T01:15:29;97193.97;;;-3.17;85.82
64078;BME280;51039;49.696;10.808;2022-12-16T01:17:54;97194.91;;;-3.18;85.84
64078;BME280;51039;49.696;10.808;2022-12-16T01:20:20;97196.81;;;-3.20;86.70
64078;BME280;51039;49.696;10.808;2022-12-16T01:22:45;97206.28;;;-3.28;85.90
64078;BME280;51039;49.696;10.808;2022-12-16T01:25:10;97203.69;;;-3.28;86.34
64078;BME280;51039;49.696;10.808;2022-12-16T01:27:39;97205.72;;;-3.22;86.26
64078;BME280;51039;49.696;10.808;2022-12-16T01:30:05;97209.09;;;-3.22;86.40
64078;BME280;51039;49.696;10.808;2022-12-16T01:32:30;97203.94;;;-3.22;86.85
64078;BME280;51039;49.696;10.808;2022-12-16T01:34:56;97205.97;;;-3.25;87.35
64078;BME280;51039;49.696;10.808;2022-12-16T01:37:22;97208.56;;;-3.25;87.39
64078;BME280;51039;49.696;10.808;2022-12-16T01:39:47;97206.44;;;-3.30;88.43
64078;BME280;51039;49.696;10.808;2022-12-16T01:42:14;97210.25;;;-3.34;89.56
64078;BME280;51039;49.696;10.808;2022-12-16T01:44:41;97213.00;;;-3.36;89.68
64078;BME280;51039;49.696;10.808;2022-12-16T01:47:08;97208.34;;;-3.32;90.14
64078;BME280;51039;49.696;10.808;2022-12-16T01:49:46;97206.88;;;-3.34;89.59
64078;BME280;51039;49.696;10.808;2022-12-16T01:52:19;97209.50;;;-3.44;89.47
64078;BME280;51039;49.696;10.808;2022-12-16T01:54:55;97207.28;;;-3.39;90.29
64078;BME280;51039;49.696;10.808;2022-12-16T01:57:58;97201.56;;;-3.43;91.62
64078;BME280;51039;49.696;10.808;2022-12-16T02:00:46;97202.09;;;-3.39;93.00
64078;BME280;51039;49.696;10.808;2022-12-16T02:03:12;97208.53;;;-3.43;93.07
64078;BME280;51039;49.696;10.808;2022-12-16T02:05:38;97219.31;;;-3.48;92.87
64078;BME280;51039;49.696;10.808;2022-12-16T02:08:09;97220.13;;;-3.47;93.40
64078;BME280;51039;49.696;10.808;2022-12-16T02:13:15;97215.09;;;-3.49;92.74
64078;BME280;51039;49.696;10.808;2022-12-16T02:16:05;97216.75;;;-3.48;92.31
64078;BME280;51039;49.696;10.808;2022-12-16T02:25:48;97232.47;;;-3.31;92.99
64078;BME280;51039;49.696;10.808;2022-12-16T02:33:16;97210.84;;;-3.40;93.88
64078;BME280;51039;49.696;10.808;2022-12-16T02:38:20;97221.06;;;-3.48;93.91
64078;BME280;51039;49.696;10.808;2022-12-16T02:46:22;97208.31;;;-3.50;93.14
64078;BME280;51039;49.696;10.808;2022-12-16T02:48:51;97209.78;;;-3.47;93.40
64078;BME280;51039;49.696;10.808;2022-12-16T02:51:16;97206.91;;;-3.44;93.43
64078;BME280;51039;49.696;10.808;2022-12-16T02:53:42;97199.97;;;-3.44;93.20
64078;BME280;51039;49.696;10.808;2022-12-16T03:04:15;97210.53;;;-3.37;93.10
64078;BME280;51039;49.696;10.808;2022-12-16T03:06:46;97214.09;;;-3.38;93.01
64078;BME280;51039;49.696;10.808;2022-12-16T03:09:14;97215.44;;;-3.34;93.17
64078;BME280;51039;49.696;10.808;2022-12-16T03:11:47;97221.28;;;-3.32;92.75
64078;BME280;51039;49.696;10.808;2022-12-16T03:14:15;97225.66;;;-3.32;93.05
64078;BME280;51039;49.696;10.808;2022-12-16T03:16:44;97221.44;;;-3.33;92.92
64078;BME280;51039;49.696;10.808;2022-12-16T03:19:11;97220.63;;;-3.34;92.81
64078;BME280;51039;49.696;10.808;2022-12-16T03:21:41;97222.41;;;-3.34;92.62
64078;BME280;51039;49.696;10.808;2022-12-16T03:24:12;97228.25;;;-3.32;93.05
64078;BME280;51039;49.696;10.808;2022-12-16T03:29:32;97228.25;;;-3.32;92.37
64078;BME280;51039;49.696;10.808;2022-12-16T03:32:16;97228.25;;;-3.32;92.64
64078;BME280;51039;49.696;10.808;2022-12-16T03:34:52;97237.78;;;-3.33;92.53
64078;BME280;51039;49.696;10.808;2022-12-16T03:37:23;97233.66;;;-3.26;92.60
64078;BME280;51039;49.696;10.808;2022-12-16T03:39:56;97244.56;;;-3.22;91.79
64078;BME280;51039;49.696;10.808;2022-12-16T03:42:24;97248.13;;;-3.23;91.98
64078;BME280;51039;49.696;10.808;2022-12-16T03:44:51;97243.75;;;-3.23;91.68
64078;BME280;51039;49.696;10.808;2022-12-16T03:47:16;97260.53;;;-3.27;91.88
64078;BME280;51039;49.696;10.808;2022-12-16T03:49:41;97260.66;;;-3.28;91.88
64078;BME280;51039;49.696;10.808;2022-12-16T03:52:07;97266.38;;;-3.25;92.60
64078;BME280;51039;49.696;10.808;2022-12-16T03:54:32;97265.59;;;-3.35;93.16
64078;BME280;51039;49.696;10.808;2022-12-16T03:56:57;97272.50;;;-3.26;93.77
64078;BME280;51039;49.696;10.808;2022-12-16T03:59:23;97270.22;;;-3.29;93.88
64078;BME280;51039;49.696;10.808;2022-12-16T04:01:49;97260.81;;;-3.30;94.38
64078;BME280;51039;49.696;10.808;2022-12-16T04:04:15;97264.63;;;-3.34;94.66
64078;BME280;51039;49.696;10.808;2022-12-16T04:06:41;97269.69;;;-3.32;94.59
64078;BME280;51039;49.696;10.808;2022-12-16T04:09:07;97273.56;;;-3.19;94.70
64078;BME280;51039;49.696;10.808;2022-12-16T04:11:32;97274.16;;;-3.25;94.61
64078;BME280;51039;49.696;10.808;2022-12-16T04:14:16;97263.84;;;-3.34;94.92
64078;BME280;51039;49.696;10.808;2022-12-16T04:17:00;97264.19;;;-3.29;94.99
64078;BME280;51039;49.696;10.808;2022-12-16T04:19:44;97262.53;;;-3.21;95.86
64078;BME280;51039;49.696;10.808;2022-12-16T04:22:33;97262.53;;;-3.21;96.03
64078;BME280;51039;49.696;10.808;2022-12-16T04:25:25;97263.22;;;-3.19;95.70
64078;BME280;51039;49.696;10.808;2022-12-16T04:27:53;97274.53;;;-3.20;95.28
64078;BME280;51039;49.696;10.808;2022-12-16T04:30:19;97274.78;;;-3.13;95.97
64078;BME280;51039;49.696;10.808;2022-12-16T04:32:46;97274.91;;;-3.14;95.54
64078;BME280;51039;49.696;10.808;2022-12-16T04:35:33;97274.53;;;-3.20;95.41
64078;BME280;51039;49.696;10.808;2022-12-16T04:38:17;97277.25;;;-3.11;96.05
64078;BME280;51039;49.696;10.808;2022-12-16T04:41:01;97282.97;;;-3.18;95.92
64078;BME280;51039;49.696;10.808;2022-12-16T04:43:45;97279.69;;;-3.20;96.46
64078;BME280;51039;49.696;10.808;2022-12-16T04:46:29;97280.13;;;-3.24;96.94
64078;BME280;51039;49.696;10.808;2022-12-16T04:49:13;97285.59;;;-3.27;97.90
64078;BME280;51039;49.696;10.808;2022-12-16T04:51:57;97293.63;;;-3.21;97.39
64078;BME280;51039;49.696;10.808;2022-12-16T04:54:41;97298.53;;;-3.27;97.58
64078;BME280;51039;49.696;10.808;2022-12-16T04:57:25;97310.00;;;-3.30;97.34
64078;BME280;51039;49.696;10.808;2022-12-16T05:00:08;97304.66;;;-3.19;97.53
64078;BME280;51039;49.696;10.808;2022-12-16T05:02:53;97305.47;;;-3.18;97.05
64078;BME280;51039;49.696;10.808;2022-12-16T05:05:36;97306.13;;;-3.16;97.47
64078;BME280;51039;49.696;10.808;2022-12-16T05:08:20;97317.59;;;-3.19;97.27
64078;BME280;51039;49.696;10.808;2022-12-16T05:11:04;97317.59;;;-3.19;98.03
64078;BME280;51039;49.696;10.808;2022-12-16T05:13:48;97318.72;;;-3.21;98.62
64078;BME280;51039;49.696;10.808;2022-12-16T05:16:32;97324.03;;;-3.23;98.58
64078;BME280;51039;49.696;10.808;2022-12-16T05:19:16;97319.53;;;-3.21;98.38
64078;BME280;51039;49.696;10.808;2022-12-16T05:22:00;97332.31;;;-3.09;98.43
64078;BME280;51039;49.696;10.808;2022-12-16T05:24:44;97329.56;;;-3.08;98.28
64078;BME280;51039;49.696;10.808;2022-12-16T05:27:28;97334.09;;;-3.20;98.12
64078;BME280;51039;49.696;10.808;2022-12-16T05:30:12;97336.41;;;-3.17;98.38
64078;BME280;51039;49.696;10.808;2022-12-16T05:32:56;97334.50;;;-3.14;98.41
64078;BME280;51039;49.696;10.808;2022-12-16T05:35:40;97337.19;;;-3.06;98.51
64078;BME280;51039;49.696;10.808;2022-12-16T05:38:24;97339.41;;;-3.11;98.23
64078;BME280;51039;49.696;10.808;2022-12-16T05:41:08;97334.50;;;-3.14;97.90
64078;BME280;51039;49.696;10.808;2022-12-16T05:43:52;97343.50;;;-3.19;98.36
64078;BME280;51039;49.696;10.808;2022-12-16T05:46:36;97346.50;;;-3.13;98.27
64078;BME280;51039;49.696;10.808;2022-12-16T05:49:19;97342.53;;;-3.18;97.95
64078;BME280;51039;49.696;10.808;2022-12-16T05:52:03;97347.47;;;-3.24;97.43
64078;BME280;51039;49.696;10.808;2022-12-16T05:54:47;97347.22;;;-3.21;97.79
64078;BME280;51039;49.696;10.808;2022-12-16T05:57:31;97350.47;;;-3.19;97.55
64078;BME280;51039;49.696;10.808;2022-12-16T06:00:15;97354.63;;;-3.08;97.70
64078;BME280;51039;49.696;10.808;2022-12-16T06:02:59;97360.53;;;-3.16;96.89
64078;BME280;51039;49.696;10.808;2022-12-16T06:05:43;97367.75;;;-3.20;97.04
64078;BME280;51039;49.696;10.808;2022-12-16T06:08:27;97373.25;;;-3.23;97.26
64078;BME280;51039;49.696;10.808;2022-12-16T06:11:11;97387.81;;;-3.22;98.40
64078;BME280;51039;49.696;10.808;2022-12-16T06:13:55;97390.97;;;-3.28;97.67
64078;BME280;51039;49.696;10.808;2022-12-16T06:16:39;97398.75;;;-3.38;97.74
64078;BME280;51039;49.696;10.808;2022-12-16T06:19:23;97394.94;;;-3.43;96.94
64078;BME280;51039;49.696;10.808;2022-12-16T06:22:07;97400.00;;;-3.51;96.70
64078;BME280;51039;49.696;10.808;2022-12-16T06:24:51;97396.03;;;-3.46;96.93
64078;BME280;51039;49.696;10.808;2022-12-16T06:27:35;97399.72;;;-3.39;97.13
64078;BME280;51039;49.696;10.808;2022-12-16T06:30:18;97413.59;;;-3.40;96.78
64078;BME280;51039;49.696;10.808;2022-12-16T06:33:02;97413.34;;;-3.46;96.88
64078;BME280;51039;49.696;10.808;2022-12-16T06:35:46;97420.16;;;-3.45;97.04
64078;BME280;51039;49.696;10.808;2022-12-16T06:38:30;97432.41;;;-3.38;96.74
64078;BME280;51039;49.696;10.808;2022-12-16T06:41:14;97438.28;;;-3.45;96.39
64078;BME280;51039;49.696;10.808;2022-12-16T06:43:58;97438.81;;;-3.42;95.96
64078;BME280;51039;49.696;10.808;2022-12-16T06:46:42;97442.63;;;-3.36;95.64
64078;BME280;51039;49.696;10.808;2022-12-16T06:49:26;97450.66;;;-3.39;95.13
64078;BME280;51039;49.696;10.808;2022-12-16T06:52:10;97458.84;;;-3.44;95.12
64078;BME280;51039;49.696;10.808;2022-12-16T06:54:54;97453.38;;;-3.41;96.04
64078;BME280;51039;49.696;10.808;2022-12-16T06:57:38;97455.97;;;-3.41;95.17
64078;BME280;51039;49.696;10.808;2022-12-16T07:00:22;97462.25;;;-3.33;95.31
64078;BME280;51039;49.696;10.808;2022-12-16T07:03:06;97462.66;;;-3.38;95.18
64078;BME280;51039;49.696;10.808;2022-12-16T07:05:53;97470.28;;;-3.17;97.62
64078;BME280;51039;49.696;10.808;2022-12-16T07:08:37;97477.03;;;-2.77;98.46
64078;BME280;51039;49.696;10.808;2022-12-16T07:11:21;97479.63;;;-2.87;94.42
64078;BME280;51039;49.696;10.808;2022-12-16T07:14:05;97483.03;;;-2.77;93.31
64078;BME280;51039;49.696;10.808;2022-12-16T07:16:49;97482.88;;;-2.65;92.04
64078;BME280;51039;49.696;10.808;2022-12-16T07:19:33;97487.88;;;-2.54;91.57
64078;BME280;51039;49.696;10.808;2022-12-16T07:22:17;97496.34;;;-2.52;90.40
64078;BME280;51039;49.696;10.808;2022-12-16T07:25:01;97496.03;;;-2.49;89.83
64078;BME280;51039;49.696;10.808;2022-12-16T07:27:45;97489.53;;;-2.63;87.59
64078;BME280;51039;49.696;10.808;2022-12-16T07:30:29;97497.81;;;-2.49;89.36
64078;BME280;51039;49.696;10.808;2022-12-16T07:33:13;97505.91;;;-2.62;85.84
64078;BME280;51039;49.696;10.808;2022-12-16T07:35:57;97505.13;;;-2.35;87.73
64078;BME280;51039;49.696;10.808;2022-12-16T07:38:41;97507.69;;;-2.25;85.29
64078;BME280;51039;49.696;10.808;2022-12-16T07:41:25;97514.50;;;-2.52;85.87
64078;BME280;51039;49.696;10.808;2022-12-16T07:44:09;97515.72;;;-2.19;85.30
64078;BME280;51039;49.696;10.808;2022-12-16T07:46:53;97522.84;;;-2.21;84.77
64078;BME280;51039;49.696;10.808;2022-12-16T07:49:37;97526.22;;;-2.48;84.78
64078;BME280;51039;49.696;10.808;2022-12-16T07:52:21;97533.16;;;-2.11;84.62
64078;BME280;51039;49.696;10.808;2022-12-16T07:55:05;97533.53;;;-2.33;83.83
64078;BME280;51039;49.696;10.808;2022-12-16T07:57:50;97535.94;;;-2.60;84.16
64078;BME280;51039;49.696;10.808;2022-12-16T08:00:34;97543.97;;;-2.63;85.02
64078;BME280;51039;49.696;10.808;2022-12-16T08:03:18;97547.69;;;-2.75;84.06
64078;BME280;51039;49.696;10.808;2022-12-16T08:06:01;97555.31;;;-2.83;84.12
64078;BME280;51039;49.696;10.808;2022-12-16T08:08:45;97555.88;;;-2.80;84.51
64078;BME280;51039;49.696;10.808;2022-12-16T08:11:29;97558.16;;;-2.57;86.24
64078;BME280;51039;49.696;10.808;2022-12-16T08:14:13;97554.91;;;-2.22;84.53
64078;BME280;51039;49.696;10.808;2022-12-16T08:16:57;97562.56;;;-2.20;84.16
64078;BME280;51039;49.696;10.808;2022-12-16T08:19:43;97567.69;;;-2.01;81.98
64078;BME280;51039;49.696;10.808;2022-12-16T08:22:26;97574.59;;;-2.19;81.78
64078;BME280;51039;49.696;10.808;2022-12-16T08:25:10;97578.31;;;-1.94;80.76
64078;BME280;51039;49.696;10.808;2022-12-16T08:27:54;97576.16;;;-1.71;80.52
64078;BME280;51039;49.696;10.808;2022-12-16T08:30:39;97584.44;;;-1.58;78.75
64078;BME280;51039;49.696;10.808;2022-12-16T08:33:22;97586.00;;;-2.12;80.80
64078;BME280;51039;49.696;10.808;2022-12-16T08:36:06;97592.88;;;-2.21;82.82
64078;BME280;51039;49.696;10.808;2022-12-16T08:38:50;97593.97;;;-2.13;82.09
64078;BME280;51039;49.696;10.808;2022-12-16T08:41:34;97597.78;;;-2.18;81.50
64078;BME280;51039;49.696;10.808;2022-12-16T08:44:18;97595.06;;;-2.26;81.79
64078;BME280;51039;49.696;10.808;2022-12-16T08:47:02;97599.66;;;-2.10;81.08
64078;BME280;51039;49.696;10.808;2022-12-16T08:49:46;97609.84;;;-2.36;81.22
64078;BME280;51039;49.696;10.808;2022-12-16T08:52:30;97614.06;;;-2.45;82.33
64078;BME280;51039;49.696;10.808;2022-12-16T08:55:14;97609.72;;;-2.44;82.79
64078;BME280;51039;49.696;10.808;2022-12-16T08:57:58;97626.63;;;-2.30;82.60
64078;BME280;51039;49.696;10.808;2022-12-16T09:00:42;97628.66;;;-2.24;82.37
64078;BME280;51039;49.696;10.808;2022-12-16T09:03:26;97631.00;;;-2.21;82.03
64078;BME280;51039;49.696;10.808;2022-12-16T09:06:10;97633.28;;;-2.18;81.37
64078;BME280;51039;49.696;10.808;2022-12-16T09:08:54;97637.94;;;-2.22;80.94
64078;BME280;51039;49.696;10.808;2022-12-16T09:11:51;97643.41;;;-2.15;81.11
64078;BME280;51039;49.696;10.808;2022-12-16T09:14:35;97655.53;;;-2.06;81.73
64078;BME280;51039;49.696;10.808;2022-12-16T09:17:19;97650.75;;;-2.10;81.41
64078;BME280;51039;49.696;10.808;2022-12-16T09:20:03;97654.16;;;-2.10;79.96
64078;BME280;51039;49.696;10.808;2022-12-16T09:22:47;97662.78;;;-2.19;79.88
64078;BME280;51039;49.696;10.808;2022-12-16T09:25:31;97667.97;;;-2.19;79.04
64078;BME280;51039;49.696;10.808;2022-12-16T09:28:15;97661.81;;;-2.18;79.58
64078;BME280;51039;49.696;10.808;2022-12-16T09:30:59;97660.22;;;-2.39;78.02
64078;BME280;51039;49.696;10.808;2022-12-16T09:33:43;97660.19;;;-2.19;79.25
64078;BME280;51039;49.696;10.808;2022-12-16T09:36:27;97663.31;;;-2.06;79.75
64078;BME280;51039;49.696;10.808;2022-12-16T09:39:11;97664.25;;;-2.07;78.39
64078;BME280;51039;49.696;10.808;2022-12-16T09:51:04;97676.09;;;-1.47;77.77
64078;BME280;51039;49.696;10.808;2022-12-16T09:53:51;97676.09;;;-1.85;77.59
64078;BME280;51039;49.696;10.808;2022-12-16T09:56:38;97679.28;;;-1.53;76.62
64078;BME280;51039;49.696;10.808;2022-12-16T09:59:31;97675.16;;;-1.56;75.13
64078;BME280;51039;49.696;10.808;2022-12-16T10:02:19;97677.44;;;-1.43;75.48
64078;BME280;51039;49.696;10.808;2022-12-16T10:05:11;97682.59;;;-1.61;75.75
64078;BME280;51039;49.696;10.808;2022-12-16T10:11:17;97681.69;;;-0.96;74.78
64078;BME280;51039;49.696;10.808;2022-12-16T10:14:08;97679.75;;;-0.94;72.72
64078;BME280;51039;49.696;10.808;2022-12-16T10:29:12;97692.41;;;-0.82;74.76
64078;BME280;51039;49.696;10.808;2022-12-16T10:32:24;97702.19;;;-1.11;74.34
64078;BME280;51039;49.696;10.808;2022-12-16T10:35:21;97699.88;;;-1.14;74.58
64078;BME280;51039;49.696;10.808;2022-12-16T10:38:14;97694.50;;;-1.31;74.70
64078;BME280;51039;49.696;10.808;2022-12-16T10:41:04;97697.59;;;-1.00;74.69
64078;BME280;51039;49.696;10.808;2022-12-16T10:43:49;97701.25;;;-0.92;74.11
64078;BME280;51039;49.696;10.808;2022-12-16T10:46:35;97693.50;;;-1.02;72.80
64078;BME280;51039;49.696;10.808;2022-12-16T10:49:19;97707.13;;;-1.46;74.44
64078;BME280;51039;49.696;10.808;2022-12-16T10:52:04;97704.88;;;-1.68;74.91
64078;BME280;51039;49.696;10.808;2022-12-16T11:00:49;97715.44;;;-1.89;76.47
64078;BME280;51039;49.696;10.808;2022-12-16T11:03:38;97712.69;;;-1.78;75.88
64078;BME280;51039;49.696;10.808;2022-12-16T11:06:27;97717.38;;;-1.91;74.81
64078;BME280;51039;49.696;10.808;2022-12-16T11:09:29;97714.03;;;-1.74;74.94
64078;BME280;51039;49.696;10.808;2022-12-16T11:15:17;97716.97;;;-1.49;74.86
64078;BME280;51039;49.696;10.808;2022-12-16T11:18:05;97716.56;;;-1.54;74.82
64078;BME280;51039;49.696;10.808;2022-12-16T11:27:00;97718.06;;;-1.42;72.67
64078;BME280;51039;49.696;10.808;2022-12-16T11:29:49;97722.84;;;-1.47;72.99
64078;BME280;51039;49.696;10.808;2022-12-16T11:32:35;97724.91;;;-1.51;72.76
64078;BME280;51039;49.696;10.808;2022-12-16T11:35:23;97729.75;;;-1.28;73.44
64078;BME280;51039;49.696;10.808;2022-12-16T11:38:13;97738.19;;;-1.16;72.88
64078;BME280;51039;49.696;10.808;2022-12-16T11:41:03;97737.41;;;-1.27;73.85
64078;BME280;51039;49.696;10.808;2022-12-16T11:43:49;97739.28;;;-1.56;73.15
64078;BME280;51039;49.696;10.808;2022-12-16T11:46:35;97741.03;;;-1.47;72.38
64078;BME280;51039;49.696;10.808;2022-12-16T11:52:13;97759.78;;;-1.53;71.95
64078;BME280;51039;49.696;10.808;2022-12-16T11:55:20;97761.03;;;-1.58;72.10
64078;BME280;51039;49.696;10.808;2022-12-16T12:04:22;97764.88;;;-1.81;73.05
64078;BME280;51039;49.696;10.808;2022-12-16T12:09:53;97768.28;;;-1.71;72.45
64078;BME280;51039;49.696;10.808;2022-12-16T12:12:54;97772.81;;;-1.83;71.87
64078;BME280;51039;49.696;10.808;2022-12-16T12:16:07;97773.22;;;-1.78;72.23
64078;BME280;51039;49.696;10.808;2022-12-16T12:19:13;97780.06;;;-1.86;71.98
64078;BME280;51039;49.696;10.808;2022-12-16T12:22:10;97784.59;;;-1.88;72.73
64078;BME280;51039;49.696;10.808;2022-12-16T12:25:24;97785.09;;;-1.94;73.56
64078;BME280;51039;49.696;10.808;2022-12-16T12:34:43;97790.69;;;-1.70;73.48
64078;BME280;51039;49.696;10.808;2022-12-16T12:37:38;97787.53;;;-1.73;72.14
64078;BME280;51039;49.696;10.808;2022-12-16T12:46:32;97798.78;;;-1.83;72.89
64078;BME280;51039;49.696;10.808;2022-12-16T12:52:52;97803.63;;;-1.50;71.48
64078;BME280;51039;49.696;10.808;2022-12-16T12:58:52;97818.31;;;-1.88;72.89
64078;BME280;51039;49.696;10.808;2022-12-16T13:01:40;97825.44;;;-1.81;73.01
64078;BME280;51039;49.696;10.808;2022-12-16T13:04:26;97822.00;;;-1.91;74.52
64078;BME280;51039;49.696;10.808;2022-12-16T13:07:12;97825.97;;;-1.97;72.53
64078;BME280;51039;49.696;10.808;2022-12-16T13:13:30;97829.41;;;-1.86;72.91
64078;BME280;51039;49.696;10.808;2022-12-16T13:16:12;97839.22;;;-2.00;73.58
64078;BME280;51039;49.696;10.808;2022-12-16T13:22:33;97843.31;;;-1.68;72.00
64078;BME280;51039;49.696;10.808;2022-12-16T13:28:37;97850.03;;;-1.75;73.23
64078;BME280;51039;49.696;10.808;2022-12-16T13:31:24;97854.94;;;-1.82;73.62
64078;BME280;51039;49.696;10.808;2022-12-16T13:37:16;97856.84;;;-1.84;73.33
64078;BME280;51039;49.696;10.808;2022-12-16T13:40:12;97865.47;;;-1.54;74.58
64078;BME280;51039;49.696;10.808;2022-12-16T13:43:01;97869.78;;;-1.45;72.98
64078;BME280;51039;49.696;10.808;2022-12-16T13:48:48;97873.09;;;-1.62;73.46
64078;BME280;51039;49.696;10.808;2022-12-16T13:54:33;97883.75;;;-1.55;72.23
64078;BME280;51039;49.696;10.808;2022-12-16T13:57:24;97886.75;;;-1.50;72.41
64078;BME280;51039;49.696;10.808;2022-12-16T14:00:16;97890.59;;;-1.54;70.99
64078;BME280;51039;49.696;10.808;2022-12-16T14:03:03;97891.94;;;-1.50;71.79
64078;BME280;51039;49.696;10.808;2022-12-16T14:05:56;97899.47;;;-1.47;71.50
64078;BME280;51039;49.696;10.808;2022-12-16T14:08:41;97914.13;;;-1.46;70.92
64078;BME280;51039;49.696;10.808;2022-12-16T14:11:31;97913.84;;;-1.53;71.41
64078;BME280;51039;49.696;10.808;2022-12-16T14:14:30;97914.38;;;-1.49;71.40
64078;BME280;51039;49.696;10.808;2022-12-16T14:17:30;97920.13;;;-1.55;71.59
64078;BME280;51039;49.696;10.808;2022-12-16T14:20:25;97932.28;;;-1.56;72.05
64078;BME280;51039;49.696;10.808;2022-12-16T14:26:27;97935.72;;;-1.65;71.49
64078;BME280;51039;49.696;10.808;2022-12-16T14:29:20;97934.84;;;-1.75;71.79
64078;BME280;51039;49.696;10.808;2022-12-16T14:32:24;97934.59;;;-1.72;71.43
64078;BME280;51039;49.696;10.808;2022-12-16T14:35:12;97938.13;;;-1.83;70.47
64078;BME280;51039;49.696;10.808;2022-12-16T14:38:19;97942.38;;;-1.82;71.21
64078;BME280;51039;49.696;10.808;2022-12-16T14:41:09;97941.16;;;-1.88;71.31
64078;BME280;51039;49.696;10.808;2022-12-16T14:43:54;97949.50;;;-1.74;72.17
64078;BME280;51039;49.696;10.808;2022-12-16T14:46:38;97950.72;;;-1.79;71.38
64078;BME280;51039;49.696;10.808;2022-12-16T14:49:23;97955.63;;;-1.85;71.57
64078;BME280;51039;49.696;10.808;2022-12-16T14:58:05;97954.78;;;-1.95;71.17
64078;BME280;51039;49.696;10.808;2022-12-16T15:00:52;97961.06;;;-2.08;71.65
64078;BME280;51039;49.696;10.808;2022-12-16T15:03:40;97960.34;;;-2.10;72.72
64078;BME280;51039;49.696;10.808;2022-12-16T15:06:28;97976.06;;;-2.11;72.02
64078;BME280;51039;49.696;10.808;2022-12-16T15:09:33;97981.50;;;-2.14;73.29
64078;BME280;51039;49.696;10.808;2022-12-16T15:12:21;97985.59;;;-2.12;73.33
64078;BME280;51039;49.696;10.808;2022-12-16T15:15:09;97982.84;;;-2.20;72.59
64078;BME280;51039;49.696;10.808;2022-12-16T15:17:57;97991.84;;;-2.24;73.37
64078;BME280;51039;49.696;10.808;2022-12-16T15:23:41;97994.66;;;-2.37;72.82
64078;BME280;51039;49.696;10.808;2022-12-16T15:26:31;97994.50;;;-2.05;85.10
64078;BME280;51039;49.696;10.808;2022-12-16T15:35:09;97999.38;;;-1.81;71.27
64078;BME280;51039;49.696;10.808;2022-12-16T15:37:54;98007.78;;;-1.38;72.38
64078;BME280;51039;49.696;10.808;2022-12-16T15:40:39;98011.16;;;-1.47;71.50
64078;BME280;51039;49.696;10.808;2022-12-16T15:43:30;98024.50;;;-1.81;70.70
64078;BME280;51039;49.696;10.808;2022-12-16T15:46:22;98029.72;;;-2.12;72.51
64078;BME280;51039;49.696;10.808;2022-12-16T15:55:23;98036.19;;;-2.58;73.57
64078;BME280;51039;49.696;10.808;2022-12-16T15:58:14;98052.00;;;-2.61;73.27
64078;BME280;51039;49.696;10.808;2022-12-16T16:01:03;98051.88;;;-2.60;73.27
64078;BME280;51039;49.696;10.808;2022-12-16T16:03:50;98057.44;;;-2.64;74.10
64078;BME280;51039;49.696;10.808;2022-12-16T16:06:35;98057.94;;;-2.70;73.32
64078;BME280;51039;49.696;10.808;2022-12-16T16:12:08;98069.19;;;-2.81;73.94
64078;BME280;51039;49.696;10.808;2022-12-16T16:14:54;98079.25;;;-2.88;74.20
64078;BME280;51039;49.696;10.808;2022-12-16T16:17:38;98078.09;;;-2.95;73.58
64078;BME280;51039;49.696;10.808;2022-12-16T16:20:22;98080.38;;;-3.02;73.88
64078;BME280;51039;49.696;10.808;2022-12-16T16:23:07;98084.16;;;-3.06;73.79
64078;BME280;51039;49.696;10.808;2022-12-16T16:25:52;98086.88;;;-3.07;74.01
64078;BME280;51039;49.696;10.808;2022-12-16T16:28:36;98092.78;;;-3.17;73.52
64078;BME280;51039;49.696;10.808;2022-12-16T16:31:20;98098.78;;;-3.16;73.91
64078;BME280;51039;49.696;10.808;2022-12-16T16:34:04;98102.09;;;-3.25;74.23